createdAt,value
2023-06-03T00:02:27.138Z,58.91
2023-06-03T00:05:02.500Z,59.02
2023-06-03T00:07:32.760Z,58.46
2023-06-03T00:10:03.384Z,58.01
2023-06-03T00:12:33.445Z,58.05
2023-06-03T00:15:03.550Z,58.37
2023-06-03T00:17:34.981Z,59.39
2023-06-03T00:20:11.004Z,59.63
2023-06-03T00:22:41.980Z,59.50
2023-06-03T00:25:13.327Z,59.56
2023-06-03T00:27:44.882Z,59.06
2023-06-03T00:30:16.054Z,59.22
2023-06-03T00:32:48.067Z,59.01
2023-06-03T00:35:20.639Z,59.57
2023-06-03T00:37:50.677Z,59.80
2023-06-03T00:40:21.119Z,59.82
2023-06-03T00:42:51.294Z,60.62
2023-06-03T00:45:21.839Z,60.30
2023-06-03T00:47:52.258Z,60.38
2023-06-03T00:50:25.266Z,60.35
2023-06-03T00:52:56.075Z,59.83
2023-06-03T00:55:26.419Z,59.86
2023-06-03T00:57:56.629Z,60.19
2023-06-03T01:00:26.819Z,60.30
2023-06-03T01:02:57.590Z,60.63
2023-06-03T01:05:30.453Z,60.73
2023-06-03T01:08:10.439Z,61.38
2023-06-03T01:10:45.140Z,61.70
2023-06-03T01:13:19.221Z,61.78
2023-06-03T01:15:52.137Z,62.55
2023-06-03T01:18:22.454Z,62.69
2023-06-03T01:21:01.501Z,62.70
2023-06-03T01:23:37.950Z,63.20
2023-06-03T01:26:08.572Z,63.32
2023-06-03T01:28:38.750Z,63.45
2023-06-03T01:31:10.167Z,63.05
2023-06-03T01:33:41.107Z,62.99
2023-06-03T01:36:11.711Z,62.75
2023-06-03T01:38:44.451Z,62.78
2023-06-03T01:41:14.590Z,62.87
2023-06-03T01:43:44.794Z,62.64
2023-06-03T01:46:15.221Z,62.39
2023-06-03T01:48:45.441Z,61.54
2023-06-03T01:51:15.443Z,62.13
2023-06-03T01:53:48.187Z,61.43
2023-06-03T01:56:18.230Z,61.94
2023-06-03T01:58:48.767Z,62.32
2023-06-03T02:01:19.192Z,62.41
2023-06-03T02:03:49.729Z,63.15
2023-06-03T02:06:19.884Z,63.27
2023-06-03T02:08:52.676Z,63.43
2023-06-03T02:11:22.953Z,63.50
2023-06-03T02:13:52.988Z,63.17
2023-06-03T02:16:23.315Z,63.09
2023-06-03T02:18:54.774Z,63.38
2023-06-03T02:21:25.103Z,62.93
2023-06-03T02:23:58.027Z,62.89
2023-06-03T02:26:28.183Z,62.81
2023-06-03T02:28:58.609Z,63.01
2023-06-03T02:31:28.616Z,63.30
2023-06-03T02:33:58.569Z,63.04
2023-06-03T02:36:28.631Z,62.74
2023-06-03T02:39:01.132Z,62.71
2023-06-03T02:41:31.449Z,62.62
2023-06-03T02:44:01.452Z,62.96
2023-06-03T02:46:31.434Z,63.00
2023-06-03T02:49:01.907Z,63.21
2023-06-03T02:51:31.912Z,63.48
2023-06-03T02:54:04.481Z,63.63
2023-06-03T02:56:34.665Z,63.73
2023-06-03T02:59:04.612Z,63.45
2023-06-03T03:01:34.931Z,63.82
2023-06-03T03:04:05.191Z,64.12
2023-06-03T03:06:38.642Z,63.90
2023-06-03T03:09:11.506Z,64.66
2023-06-03T03:11:46.332Z,64.71
2023-06-03T03:14:18.144Z,64.44
2023-06-03T03:16:49.360Z,64.33
2023-06-03T03:19:19.731Z,64.38
2023-06-03T03:21:49.808Z,64.36
2023-06-03T03:24:31.981Z,64.42
2023-06-03T03:27:02.294Z,64.59
2023-06-03T03:29:35.330Z,64.72
2023-06-03T03:32:11.121Z,64.75
2023-06-03T03:34:48.099Z,64.43
2023-06-03T03:37:18.056Z,64.54
2023-06-03T03:39:52.454Z,64.46
2023-06-03T03:42:22.931Z,64.71
2023-06-03T03:44:53.757Z,64.87
2023-06-03T03:47:25.222Z,64.62
2023-06-03T03:49:55.418Z,65.09
2023-06-03T03:52:34.087Z,65.22
2023-06-03T03:55:08.188Z,65.04
2023-06-03T03:57:40.478Z,64.98
2023-06-03T04:00:12.433Z,65.33
2023-06-03T04:02:46.125Z,65.58
2023-06-03T04:05:17.719Z,65.59
2023-06-03T04:07:49.556Z,65.45
2023-06-03T04:10:24.810Z,65.46
2023-06-03T04:12:54.672Z,65.87
2023-06-03T04:15:31.639Z,65.71
2023-06-03T04:18:01.799Z,65.97
2023-06-03T04:20:45.878Z,65.67
2023-06-03T04:23:18.222Z,66.30
2023-06-03T04:25:54.968Z,66.08
2023-06-03T04:28:26.168Z,66.37
2023-06-03T04:30:56.640Z,66.61
2023-06-03T04:33:26.552Z,66.79
2023-06-03T04:35:57.402Z,66.84
2023-06-03T04:38:27.807Z,66.97
2023-06-03T04:41:03.088Z,66.91
2023-06-03T04:43:35.156Z,66.93
2023-06-03T04:46:06.774Z,66.92
2023-06-03T04:48:37.781Z,67.35
2023-06-03T04:51:09.234Z,67.35
2023-06-03T04:53:40.363Z,67.70
2023-06-03T04:56:14.399Z,67.81
2023-06-03T04:58:45.278Z,68.13
2023-06-03T05:01:22.701Z,68.00
2023-06-03T05:03:52.832Z,67.70
2023-06-03T05:06:24.876Z,68.03
2023-06-03T05:08:55.211Z,69.05
2023-06-03T05:11:27.843Z,69.49
2023-06-03T05:13:57.931Z,68.90
2023-06-03T05:16:27.994Z,69.82
2023-06-03T05:18:58.000Z,70.12
2023-06-03T05:21:28.293Z,70.51
2023-06-03T05:23:59.572Z,70.99
2023-06-03T05:26:32.275Z,71.40
2023-06-03T05:29:02.363Z,71.40
2023-06-03T05:31:32.651Z,71.77
2023-06-03T05:34:03.232Z,71.68
2023-06-03T05:36:33.393Z,71.57
2023-06-03T05:39:05.492Z,71.68
2023-06-03T05:41:40.054Z,70.57
2023-06-03T05:44:11.389Z,71.28
2023-06-03T05:46:41.460Z,71.28
2023-06-03T05:49:11.465Z,71.06
2023-06-03T05:51:41.638Z,71.68
2023-06-03T05:54:11.572Z,69.95
2023-06-03T05:56:44.192Z,69.99
2023-06-03T05:59:14.174Z,68.85
2023-06-03T06:01:46.778Z,69.08
2023-06-03T06:04:16.738Z,69.41
2023-06-03T06:06:47.257Z,68.25
2023-06-03T06:09:17.471Z,67.44
2023-06-03T06:11:50.142Z,65.94
2023-06-03T06:14:20.128Z,65.79
2023-06-03T06:16:50.961Z,63.09
2023-06-03T06:19:21.522Z,63.36
2023-06-03T06:21:52.471Z,59.74
2023-06-03T06:24:23.028Z,57.03
2023-06-03T06:26:55.937Z,59.07
2023-06-03T06:29:25.945Z,58.77
2023-06-03T06:31:56.071Z,57.26
2023-06-03T06:34:31.172Z,59.91
2023-06-03T06:37:02.771Z,57.72
2023-06-03T06:39:53.668Z,58.73
2023-06-03T06:42:46.447Z,56.93
2023-06-03T06:45:29.530Z,55.02
2023-06-03T06:48:07.763Z,56.03
2023-06-03T06:50:50.689Z,54.89
2023-06-03T06:53:23.226Z,54.10
2023-06-03T06:55:58.473Z,51.27
2023-06-03T06:58:57.199Z,54.08
2023-06-03T07:01:27.309Z,52.61
2023-06-03T07:03:59.576Z,53.79
2023-06-03T07:06:31.232Z,52.26
2023-06-03T07:09:06.135Z,53.81
2023-06-03T07:11:40.724Z,53.74
2023-06-03T07:14:13.329Z,52.23
2023-06-03T07:16:45.263Z,48.81
2023-06-03T07:19:16.685Z,49.35
2023-06-03T07:21:51.520Z,51.39
2023-06-03T07:24:21.804Z,48.95
2023-06-03T07:26:54.096Z,47.43
2023-06-03T07:29:26.933Z,49.23
2023-06-03T07:31:57.234Z,49.52
2023-06-03T07:34:27.239Z,49.00
2023-06-03T07:37:05.300Z,48.46
2023-06-03T07:39:39.270Z,50.07
2023-06-03T07:42:18.955Z,49.00
2023-06-03T07:44:57.222Z,48.96
2023-06-03T07:47:29.291Z,49.00
2023-06-03T07:50:00.909Z,45.63
2023-06-03T07:52:32.450Z,47.05
2023-06-03T07:55:02.410Z,47.13
2023-06-03T07:57:32.489Z,47.64
2023-06-03T08:00:05.630Z,48.07
2023-06-03T08:02:42.630Z,47.86
2023-06-03T08:05:12.954Z,45.71
2023-06-03T08:07:47.246Z,45.68
2023-06-03T08:10:28.299Z,45.95
2023-06-03T08:12:58.384Z,47.04
2023-06-03T08:15:36.529Z,46.05
2023-06-03T08:18:08.628Z,45.45
2023-06-03T08:20:40.266Z,41.85
2023-06-03T08:23:11.088Z,41.61
2023-06-03T08:25:40.979Z,41.61
2023-06-03T08:28:11.160Z,40.94
2023-06-03T08:31:00.091Z,40.63
2023-06-03T08:33:42.598Z,38.08
2023-06-03T08:36:26.599Z,37.84
2023-06-03T08:39:22.061Z,37.69
2023-06-03T08:45:27.533Z,36.29
2023-06-03T08:48:10.656Z,36.04
2023-06-03T08:50:45.536Z,36.44
2023-06-03T08:53:15.862Z,34.87
2023-06-03T08:55:49.785Z,33.92
2023-06-03T08:58:32.922Z,34.45
2023-06-03T09:01:05.449Z,34.35
2023-06-03T09:03:38.539Z,33.74
2023-06-03T09:06:08.982Z,33.12
2023-06-03T09:08:39.947Z,33.82
2023-06-03T09:11:11.410Z,31.14
2023-06-03T09:17:29.606Z,31.39
2023-06-03T09:20:06.534Z,31.55
2023-06-03T09:22:58.672Z,29.14
2023-06-03T09:25:45.629Z,31.34
2023-06-03T09:28:50.141Z,30.99
2023-06-03T09:31:41.225Z,29.61
2023-06-03T09:34:31.813Z,30.24
2023-06-03T09:40:48.845Z,29.96
2023-06-03T09:46:48.174Z,28.75
2023-06-03T09:49:37.901Z,27.73
2023-06-03T09:53:01.517Z,29.35
2023-06-03T09:55:54.543Z,28.03
2023-06-03T09:59:03.320Z,27.48
2023-06-03T10:01:35.707Z,28.86
2023-06-03T10:04:05.648Z,29.83
2023-06-03T10:06:36.881Z,28.70
2023-06-03T10:09:21.472Z,27.24
2023-06-03T10:11:55.192Z,28.38
2023-06-03T10:14:27.470Z,28.78
2023-06-03T10:17:11.013Z,27.86
2023-06-03T10:19:42.909Z,27.91
2023-06-03T10:22:14.288Z,26.82
2023-06-03T10:24:46.426Z,26.54
2023-06-03T10:27:20.807Z,27.98
2023-06-03T10:29:52.192Z,26.67
2023-06-03T10:32:23.785Z,28.08
2023-06-03T10:34:54.092Z,28.18
2023-06-03T10:37:24.055Z,26.54
2023-06-03T10:39:53.945Z,26.49
2023-06-03T10:42:27.117Z,26.24
2023-06-03T10:44:57.015Z,27.52
2023-06-03T10:47:29.371Z,28.59
2023-06-03T10:50:03.997Z,28.59
2023-06-03T10:52:54.816Z,27.30
2023-06-03T10:55:33.878Z,26.40
2023-06-03T10:58:11.781Z,27.12
2023-06-03T11:01:00.625Z,27.47
2023-06-03T11:03:32.169Z,25.79
2023-06-03T11:06:44.260Z,24.65
2023-06-03T11:09:17.961Z,26.42
2023-06-03T11:12:11.151Z,25.83
2023-06-03T11:14:59.205Z,26.03
2023-06-03T11:17:30.178Z,27.15
2023-06-03T11:20:01.699Z,26.51
2023-06-03T11:22:45.381Z,27.44
2023-06-03T11:25:31.715Z,26.08
2023-06-03T11:28:39.916Z,27.11
2023-06-03T11:31:12.423Z,26.55
2023-06-03T11:33:42.262Z,26.06
2023-06-03T11:36:42.147Z,25.45
2023-06-03T11:39:12.049Z,26.99
2023-06-03T11:42:03.195Z,27.27
2023-06-03T11:44:35.497Z,25.09
2023-06-03T11:47:08.995Z,26.21
2023-06-03T11:49:40.250Z,26.60
2023-06-03T11:52:11.751Z,25.81
2023-06-03T11:54:42.878Z,26.67
2023-06-03T11:57:14.779Z,25.91
2023-06-03T11:59:46.075Z,26.10
2023-06-03T12:02:18.935Z,26.25
2023-06-03T12:04:50.061Z,26.28
2023-06-03T12:07:20.072Z,27.38
2023-06-03T12:09:49.924Z,28.45
2023-06-03T12:12:19.922Z,27.80
2023-06-03T12:14:49.847Z,27.45
2023-06-03T12:17:23.547Z,26.58
2023-06-03T12:19:55.370Z,27.68
2023-06-03T12:22:26.640Z,26.10
2023-06-03T12:24:57.236Z,26.99
2023-06-03T12:27:28.615Z,26.19
2023-06-03T12:29:59.253Z,26.93
2023-06-03T12:32:32.958Z,26.90
2023-06-03T12:35:13.927Z,26.70
2023-06-03T12:37:43.812Z,27.64
2023-06-03T12:40:14.441Z,30.02
2023-06-03T12:42:46.029Z,26.51
2023-06-03T12:45:15.908Z,27.01
2023-06-03T12:47:50.475Z,24.04
2023-06-03T12:50:21.693Z,26.53
2023-06-03T12:52:51.999Z,27.03
2023-06-03T12:55:22.235Z,26.46
2023-06-03T12:57:52.032Z,26.78
2023-06-03T13:00:23.702Z,27.01
2023-06-03T13:02:58.370Z,25.72
2023-06-03T13:05:28.240Z,27.08
2023-06-03T13:07:58.115Z,24.86
2023-06-03T13:10:27.998Z,24.88
2023-06-03T13:12:58.444Z,25.78
2023-06-03T13:15:28.796Z,26.53
2023-06-03T13:18:01.385Z,25.06
2023-06-03T13:20:32.497Z,25.60
2023-06-03T13:23:02.759Z,27.38
2023-06-03T13:25:32.726Z,26.85
2023-06-03T13:28:03.098Z,25.56
2023-06-03T13:30:33.281Z,27.60
2023-06-03T13:33:05.932Z,25.81
2023-06-03T13:35:36.248Z,26.70
2023-06-03T13:38:06.560Z,26.23
2023-06-03T13:40:36.809Z,24.77
2023-06-03T13:43:06.725Z,25.95
2023-06-03T13:45:36.971Z,26.11
2023-06-03T13:48:09.737Z,26.30
2023-06-03T13:50:40.087Z,26.60
2023-06-03T13:53:09.988Z,26.60
2023-06-03T13:55:40.399Z,27.23
2023-06-03T13:58:10.592Z,25.82
2023-06-03T14:00:41.060Z,26.09
2023-06-03T14:03:14.227Z,27.08
2023-06-03T14:05:45.700Z,26.89
2023-06-03T14:08:15.913Z,25.88
2023-06-03T14:10:46.033Z,26.08
2023-06-03T14:13:16.687Z,25.17
2023-06-03T14:15:47.078Z,26.93
2023-06-03T14:18:19.875Z,26.86
2023-06-03T14:20:50.089Z,27.01
2023-06-03T14:23:20.472Z,27.66
2023-06-03T14:25:50.932Z,26.25
2023-06-03T14:28:22.988Z,26.52
2023-06-03T14:33:29.962Z,26.98
2023-06-03T14:35:59.795Z,26.98
2023-06-03T14:38:32.710Z,26.97
2023-06-03T14:41:02.465Z,26.40
2023-06-03T14:43:32.178Z,25.02
2023-06-03T14:46:01.924Z,26.52
2023-06-03T14:48:34.344Z,26.34
2023-06-03T14:51:04.365Z,27.70
2023-06-03T14:53:34.317Z,26.74
2023-06-03T14:56:04.193Z,27.15
2023-06-03T14:58:34.038Z,25.90
2023-06-03T15:01:04.565Z,26.36
2023-06-03T15:03:36.884Z,26.88
2023-06-03T15:06:07.036Z,26.92
2023-06-03T15:08:36.823Z,27.34
2023-06-03T15:11:06.609Z,27.55
2023-06-03T15:13:36.352Z,26.41
2023-06-03T15:16:06.559Z,27.29
2023-06-03T15:18:39.358Z,27.03
2023-06-03T15:21:09.208Z,28.75
2023-06-03T15:23:39.093Z,28.10
2023-06-03T15:26:09.347Z,27.79
2023-06-03T15:28:38.963Z,28.14
2023-06-03T15:31:08.725Z,27.63
2023-06-03T15:33:41.019Z,27.19
2023-06-03T15:36:11.240Z,29.20
2023-06-03T15:38:41.186Z,28.55
2023-06-03T15:41:10.968Z,27.48
2023-06-03T15:43:40.755Z,28.82
2023-06-03T15:46:10.442Z,28.21
2023-06-03T15:48:42.716Z,28.77
2023-06-03T15:51:12.381Z,29.48
2023-06-03T15:53:42.280Z,27.91
2023-06-03T15:56:12.246Z,27.47
2023-06-03T15:58:41.928Z,28.06
2023-06-03T16:01:11.980Z,28.34
2023-06-03T16:03:45.019Z,29.26
2023-06-03T16:06:14.758Z,29.59
2023-06-03T16:08:44.623Z,29.75
2023-06-03T16:11:14.339Z,29.45
2023-06-03T16:13:44.498Z,29.85
2023-06-03T16:16:14.346Z,30.50
2023-06-03T16:18:46.652Z,30.64
2023-06-03T16:21:16.370Z,30.80
2023-06-03T16:23:46.129Z,31.44
2023-06-03T16:26:16.574Z,29.96
2023-06-03T16:28:46.046Z,31.72
2023-06-03T16:31:15.810Z,29.81
2023-06-03T16:33:51.622Z,30.33
2023-06-03T16:36:21.533Z,31.33
2023-06-03T16:38:51.221Z,31.01
2023-06-03T16:41:21.832Z,31.03
2023-06-03T16:43:51.494Z,31.10
2023-06-03T16:46:21.234Z,31.73
2023-06-03T16:48:53.491Z,29.82
2023-06-03T16:51:23.614Z,30.35
2023-06-03T16:53:53.364Z,30.69
2023-06-03T16:56:23.074Z,31.98
2023-06-03T16:58:52.759Z,32.02
2023-06-03T17:01:22.779Z,31.06
2023-06-03T17:03:56.522Z,31.51
2023-06-03T17:06:26.309Z,31.47
2023-06-03T17:08:56.775Z,32.10
2023-06-03T17:11:26.670Z,32.78
2023-06-03T17:13:59.695Z,31.99
2023-06-03T17:16:29.385Z,32.17
2023-06-03T17:19:02.049Z,32.02
2023-06-03T17:21:31.844Z,32.64
2023-06-03T17:24:01.685Z,32.32
2023-06-03T17:26:31.439Z,32.46
2023-06-03T17:29:02.054Z,32.84
2023-06-03T17:31:32.359Z,31.36
2023-06-03T17:34:04.848Z,30.75
2023-06-03T17:36:34.562Z,32.33
2023-06-03T17:39:04.492Z,32.20
2023-06-03T17:41:36.556Z,32.27
2023-06-03T17:44:07.410Z,31.80
2023-06-03T17:46:37.132Z,31.26
2023-06-03T17:49:09.400Z,31.54
2023-06-03T17:51:39.892Z,32.25
2023-06-03T17:54:09.638Z,32.69
2023-06-03T17:56:39.374Z,31.28
2023-06-03T17:59:09.926Z,30.44
2023-06-03T18:01:40.447Z,31.86
2023-06-03T18:04:13.260Z,33.33
2023-06-03T18:06:43.155Z,34.03
2023-06-03T18:09:12.856Z,33.17
2023-06-03T18:11:42.562Z,34.06
2023-06-03T18:14:12.245Z,34.39
2023-06-03T18:16:41.965Z,34.34
2023-06-03T18:19:14.317Z,34.23
2023-06-03T18:21:46.832Z,34.09
2023-06-03T18:24:16.574Z,34.05
2023-06-03T18:26:46.430Z,33.66
2023-06-03T18:29:16.075Z,34.20
2023-06-03T18:31:45.770Z,34.86
2023-06-03T18:34:20.730Z,34.47
2023-06-03T18:36:50.478Z,34.13
2023-06-03T18:39:20.321Z,35.25
2023-06-03T18:41:50.018Z,35.20
2023-06-03T18:44:20.595Z,35.05
2023-06-03T18:46:50.320Z,35.73
2023-06-03T18:49:22.619Z,35.50
2023-06-03T18:51:52.331Z,35.92
2023-06-03T18:54:22.015Z,36.94
2023-06-03T18:56:51.822Z,37.67
2023-06-03T18:59:21.497Z,37.79
2023-06-03T19:01:51.260Z,37.29
2023-06-03T19:04:23.895Z,37.45
2023-06-03T19:06:53.620Z,38.15
2023-06-03T19:09:23.292Z,36.76
2023-06-03T19:11:52.963Z,35.63
2023-06-03T19:14:23.762Z,35.89
2023-06-03T19:16:53.499Z,36.45
2023-06-03T19:19:26.064Z,37.89
2023-06-03T19:21:55.740Z,38.06
2023-06-03T19:24:25.455Z,38.56
2023-06-03T19:26:55.154Z,38.74
2023-06-03T19:29:24.826Z,38.91
2023-06-03T19:31:54.542Z,41.51
2023-06-03T19:34:26.884Z,41.90
2023-06-03T19:36:56.547Z,44.00
2023-06-03T19:39:26.330Z,45.20
2023-06-03T19:41:56.033Z,45.26
2023-06-03T19:44:25.878Z,45.87
2023-06-03T19:46:56.338Z,47.35
2023-06-03T19:49:28.768Z,47.41
2023-06-03T19:51:58.439Z,47.83
2023-06-03T19:54:28.135Z,48.83
2023-06-03T19:56:57.861Z,49.12
2023-06-03T19:59:27.526Z,48.28
2023-06-03T20:01:57.278Z,49.00
2023-06-03T20:04:29.531Z,49.74
2023-06-03T20:06:59.369Z,49.16
2023-06-03T20:09:29.258Z,48.79
2023-06-03T20:11:58.930Z,49.62
2023-06-03T20:14:28.637Z,50.82
2023-06-03T20:16:58.421Z,50.61
2023-06-03T20:19:30.741Z,50.14
2023-06-03T20:22:00.541Z,49.28
2023-06-03T20:24:30.271Z,49.29
2023-06-03T20:26:59.933Z,49.82
2023-06-03T20:33:51.685Z,50.74
2023-06-03T20:36:26.469Z,51.30
2023-06-03T20:38:56.292Z,51.49
2023-06-03T20:41:27.341Z,51.78
2023-06-03T20:43:58.066Z,51.52
2023-06-03T20:46:28.243Z,52.31
2023-06-03T20:48:58.228Z,52.07
2023-06-03T20:51:30.847Z,52.83
2023-06-03T20:54:01.603Z,52.05
2023-06-03T20:56:31.485Z,52.69
2023-06-03T20:59:01.327Z,52.80
2023-06-03T21:01:31.415Z,53.10
2023-06-03T21:04:01.635Z,52.33
2023-06-03T21:06:34.259Z,52.74
2023-06-03T21:09:04.039Z,54.11
2023-06-03T21:11:33.776Z,53.76
2023-06-03T21:14:03.693Z,53.37
2023-06-03T21:16:33.558Z,53.13
2023-06-03T21:19:03.364Z,53.64
2023-06-03T21:21:36.070Z,53.66
2023-06-03T21:24:05.899Z,53.85
2023-06-03T21:26:35.835Z,53.97
2023-06-03T21:29:07.817Z,54.18
2023-06-03T21:31:37.710Z,54.75
2023-06-03T21:34:07.484Z,55.35
2023-06-03T21:36:39.971Z,54.13
2023-06-03T21:39:09.920Z,54.72
2023-06-03T21:41:39.749Z,54.86
2023-06-03T21:44:09.778Z,54.92
2023-06-03T21:46:39.652Z,55.05
2023-06-03T21:49:09.497Z,55.21
2023-06-03T21:51:42.124Z,54.89
2023-06-03T21:54:12.089Z,55.00
2023-06-03T21:56:41.973Z,55.29
2023-06-03T21:59:12.634Z,55.29
2023-06-03T22:01:43.701Z,55.57
2023-06-03T22:04:13.723Z,55.72
2023-06-03T22:06:46.335Z,56.00
2023-06-03T22:09:17.338Z,55.95
2023-06-03T22:11:47.486Z,55.83
2023-06-03T22:14:17.474Z,56.19
2023-06-03T22:16:47.484Z,56.00
2023-06-03T22:19:17.513Z,56.62
2023-06-03T22:21:51.391Z,56.81
2023-06-03T22:24:21.354Z,56.88
2023-06-03T22:26:58.738Z,57.01
2023-06-03T22:29:30.284Z,57.26
2023-06-03T22:32:00.254Z,57.29
2023-06-03T22:34:30.343Z,57.43
2023-06-03T22:37:03.236Z,57.48
2023-06-03T22:39:37.404Z,57.45
2023-06-03T22:42:25.007Z,57.59
2023-06-03T22:51:27.653Z,57.65
2023-06-03T22:54:00.247Z,57.94
2023-06-03T22:56:30.166Z,57.91
2023-06-03T22:59:00.462Z,57.89
2023-06-03T23:01:30.476Z,57.96
2023-06-03T23:04:00.688Z,57.88
2023-06-03T23:06:30.767Z,58.15
2023-06-03T23:09:03.314Z,58.18
2023-06-03T23:11:34.381Z,58.19
2023-06-03T23:14:04.296Z,57.99
2023-06-03T23:16:34.352Z,58.10
2023-06-03T23:19:04.402Z,58.02
2023-06-03T23:21:34.374Z,57.55
2023-06-03T23:24:08.172Z,58.00
2023-06-03T23:26:38.318Z,58.21
2023-06-03T23:29:08.286Z,57.70
2023-06-03T23:31:38.328Z,57.91
2023-06-03T23:34:08.437Z,57.93
2023-06-03T23:36:38.369Z,58.07
2023-06-03T23:39:10.954Z,58.50
2023-06-03T23:41:41.070Z,57.85
2023-06-03T23:44:11.212Z,58.21
2023-06-03T23:46:41.147Z,58.24
2023-06-03T23:49:11.127Z,58.49
2023-06-03T23:51:41.096Z,58.47
2023-06-03T23:54:13.688Z,58.77
2023-06-03T23:56:43.608Z,58.41
2023-06-03T23:59:13.523Z,58.93
